Time;durP1;ratioP1;P1;durP2;ratioP2;P2;SDS_P1;SDS_P2;PMS_P1;PMS_P2;Temp;Humidity;BMP_temperature;BMP_pressure;BME280_temperature;BME280_humidity;BME280_pressure;Samples;Min_cycle;Max_cycle;Signal;HPM_P1;HPM_P2
2023/08/12 00:02:16;;;;;;;10.87;9.87;;;25.20;99.90;;;;;;5026836;28;20449;-52
2023/08/12 00:04:43;;;;;;;11.77;10.77;;;25.20;99.90;;;;;;5032872;28;20501;-53
2023/08/12 00:07:09;;;;;;;14.37;13.03;;;25.30;99.90;;;;;;5032714;28;20503;-51
2023/08/12 00:09:36;;;;;;;12.27;11.13;;;25.30;99.90;;;;;;5033054;28;20952;-51
2023/08/12 00:12:04;;;;;;;12.40;11.30;;;25.20;99.90;;;;;;5024733;28;20453;-51
2023/08/12 00:14:31;;;;;;;11.57;10.57;;;25.20;99.90;;;;;;5032853;28;20501;-51
2023/08/12 00:16:59;;;;;;;11.20;10.10;;;25.20;99.90;;;;;;5032671;28;20893;-51
2023/08/12 00:19:26;;;;;;;11.87;10.67;;;25.20;99.90;;;;;;5032663;28;20884;-50
2023/08/12 00:21:53;;;;;;;11.37;10.23;;;25.20;99.90;;;;;;5024837;28;20458;-51
2023/08/12 00:24:20;;;;;;;11.50;10.50;;;25.20;99.90;;;;;;5032628;28;20488;-51
2023/08/12 00:26:47;;;;;;;11.03;9.53;;;25.20;99.90;;;;;;5032665;28;20449;-51
2023/08/12 00:29:14;;;;;;;12.60;11.30;;;25.20;99.90;;;;;;5032588;28;20437;-51
2023/08/12 00:31:41;;;;;;;9.83;9.03;;;25.20;99.90;;;;;;5024796;28;20872;-54
2023/08/12 00:34:09;;;;;;;11.20;9.43;;;25.20;99.90;;;;;;5032412;28;20468;-51
2023/08/12 00:36:37;;;;;;;9.30;8.50;;;25.20;99.90;;;;;;5032596;28;20476;-50
2023/08/12 00:39:04;;;;;;;10.50;9.47;;;25.20;99.90;;;;;;5016628;28;20445;-53
2023/08/12 00:41:30;;;;;;;9.60;8.90;;;25.20;99.90;;;;;;5025127;28;20524;-57
2023/08/12 00:43:56;;;;;;;10.00;9.00;;;25.20;99.90;;;;;;5032115;28;20497;-58
2023/08/12 00:46:24;;;;;;;8.90;8.17;;;25.20;99.90;;;;;;5032354;28;20961;-57
2023/08/12 00:48:51;;;;;;;11.20;9.57;;;25.20;99.90;;;;;;5032249;28;20614;-53
2023/08/12 00:51:19;;;;;;;9.93;9.13;;;25.20;99.90;;;;;;5025084;28;20492;-54
2023/08/12 00:53:47;;;;;;;11.67;10.67;;;25.20;99.90;;;;;;5031973;28;20500;-51
2023/08/12 00:56:14;;;;;;;9.50;8.70;;;25.20;99.90;;;;;;5032199;28;20535;-50
2023/08/12 00:58:42;;;;;;;11.30;10.13;;;25.20;99.90;;;;;;5031896;28;20445;-52
2023/08/12 01:01:09;;;;;;;13.30;9.67;;;25.20;99.90;;;;;;5024910;28;20568;-52
2023/08/12 01:03:36;;;;;;;13.27;9.43;;;25.10;99.90;;;;;;5031862;28;20894;-52
2023/08/12 01:06:03;;;;;;;8.70;7.80;;;25.10;99.90;;;;;;5023750;28;20480;-51
2023/08/12 01:08:33;;;;;;;8.10;7.50;;;25.10;99.90;;;;;;5029020;28;20488;-50
2023/08/12 01:11:10;;;;;;;9.03;8.30;;;25.20;99.90;;;;;;5027049;28;20445;-54
2023/08/12 01:13:45;;;;;;;9.83;9.13;;;25.10;99.90;;;;;;5031843;28;20489;-51
2023/08/12 01:16:17;;;;;;;11.60;8.37;;;25.10;99.90;;;;;;5017939;28;20492;-51
2023/08/12 01:18:44;;;;;;;8.87;7.97;;;25.10;99.90;;;;;;5027138;28;20879;-53
2023/08/12 01:21:16;;;;;;;8.77;7.97;;;25.10;99.90;;;;;;5027841;28;20515;-51
2023/08/12 01:23:45;;;;;;;8.67;7.97;;;25.10;99.90;;;;;;5031459;28;20519;-52
2023/08/12 01:26:12;;;;;;;9.03;8.33;;;25.10;99.90;;;;;;5031651;28;20476;-53
2023/08/12 01:28:39;;;;;;;8.20;7.50;;;25.10;99.90;;;;;;5027648;28;20454;-56
2023/08/12 01:31:12;;;;;;;8.20;7.50;;;25.10;99.90;;;;;;5023882;28;20801;-51
2023/08/12 01:33:46;;;;;;;9.03;8.00;;;25.10;99.90;;;;;;5031602;28;20492;-56
2023/08/12 01:36:17;;;;;;;7.40;6.80;;;25.10;99.90;;;;;;5016084;28;20534;-51
2023/08/12 01:38:47;;;;;;;7.23;6.53;;;25.10;99.90;;;;;;5031401;28;20469;-50
2023/08/12 01:41:16;;;;;;;8.47;7.67;;;25.10;99.90;;;;;;5031182;28;20487;-50
2023/08/12 01:43:43;;;;;;;7.77;7.07;;;25.10;99.90;;;;;;5031085;28;20500;-51
2023/08/12 01:46:11;;;;;;;7.90;7.30;;;25.10;99.90;;;;;;5023654;28;20473;-51
2023/08/12 01:48:38;;;;;;;7.20;6.57;;;25.10;99.90;;;;;;5031334;28;20445;-51
2023/08/12 01:51:05;;;;;;;7.73;7.00;;;25.10;99.90;;;;;;5022979;28;20502;-51
2023/08/12 01:53:32;;;;;;;8.33;7.53;;;25.10;99.90;;;;;;5031296;28;20887;-51
2023/08/12 01:56:00;;;;;;;7.27;6.53;;;25.10;99.90;;;;;;5023525;28;20454;-53
2023/08/12 01:58:27;;;;;;;7.40;6.83;;;25.10;99.90;;;;;;5031097;28;20495;-51
2023/08/12 02:00:54;;;;;;;6.63;6.00;;;25.10;99.90;;;;;;5030875;28;20849;-50
2023/08/12 02:03:21;;;;;;;6.63;5.97;;;25.10;99.90;;;;;;5025289;28;20565;-54
2023/08/12 02:05:48;;;;;;;10.47;6.57;;;25.10;99.90;;;;;;5028668;28;20441;-55
2023/08/12 02:08:15;;;;;;;5.60;5.03;;;25.10;99.90;;;;;;5024966;28;20464;-51
2023/08/12 02:10:41;;;;;;;7.87;6.20;;;25.10;99.90;;;;;;5030984;28;20499;-51
2023/08/12 02:13:10;;;;;;;6.13;5.73;;;25.00;99.90;;;;;;5027224;28;20509;-50
2023/08/12 02:15:37;;;;;;;5.73;5.30;;;25.10;99.90;;;;;;5027219;28;20456;-51
2023/08/12 02:18:04;;;;;;;5.77;5.33;;;25.10;99.90;;;;;;5030888;28;20469;-52
2023/08/12 02:20:31;;;;;;;6.77;5.87;;;25.10;99.90;;;;;;5030804;28;20510;-54
2023/08/12 02:22:58;;;;;;;6.10;5.60;;;25.00;99.90;;;;;;5028408;28;20492;-52
2023/08/12 02:25:25;;;;;;;5.80;5.37;;;25.00;99.90;;;;;;5025352;28;20445;-51
2023/08/12 02:27:52;;;;;;;5.93;5.50;;;25.10;99.90;;;;;;5030930;28;20480;-52
2023/08/12 02:30:20;;;;;;;7.73;5.30;;;25.00;99.90;;;;;;5033438;28;20445;-52
2023/08/12 02:32:47;;;;;;;6.53;5.47;;;25.00;99.90;;;;;;5031872;28;20481;-52
2023/08/12 02:35:14;;;;;;;6.93;6.23;;;25.00;99.90;;;;;;5034913;28;20960;-52
2023/08/12 02:37:40;;;;;;;6.00;5.40;;;25.00;99.90;;;;;;5034772;28;20873;-50
2023/08/12 02:40:10;;;;;;;6.07;5.53;;;25.00;99.90;;;;;;5018479;28;20536;-55
2023/08/12 02:42:37;;;;;;;7.37;5.93;;;25.00;99.90;;;;;;5032642;28;20448;-50
2023/08/12 02:45:05;;;;;;;5.93;5.20;;;25.00;99.90;;;;;;5034034;28;20472;-52
2023/08/12 02:47:33;;;;;;;4.43;4.10;;;25.00;99.90;;;;;;5034511;28;20476;-53
2023/08/12 02:50:00;;;;;;;5.73;4.90;;;25.00;99.90;;;;;;5034433;28;20480;-54
2023/08/12 02:52:27;;;;;;;5.80;5.20;;;25.00;99.90;;;;;;5031587;28;20477;-51
2023/08/12 02:54:55;;;;;;;6.03;5.53;;;25.00;99.90;;;;;;5032545;28;20984;-51
2023/08/12 02:57:21;;;;;;;4.57;4.27;;;25.00;99.90;;;;;;5034368;28;21006;-51
2023/08/12 02:59:48;;;;;;;5.77;5.27;;;25.00;99.90;;;;;;5034148;28;20495;-51
2023/08/12 03:02:16;;;;;;;5.60;5.10;;;25.00;99.90;;;;;;5033300;28;20472;-50
2023/08/12 03:04:44;;;;;;;6.50;5.97;;;25.00;99.90;;;;;;5030784;28;20867;-56
2023/08/12 03:07:11;;;;;;;5.30;4.90;;;25.00;99.90;;;;;;5018809;28;20472;-56
2023/08/12 03:09:38;;;;;;;6.87;5.80;;;25.00;99.90;;;;;;5034352;28;20480;-50
2023/08/12 03:12:05;;;;;;;5.93;5.43;;;25.00;99.90;;;;;;5033791;28;20476;-55
2023/08/12 03:14:32;;;;;;;7.10;6.40;;;25.00;99.90;;;;;;5029528;28;20500;-53
2023/08/12 03:16:59;;;;;;;5.77;5.10;;;25.00;99.90;;;;;;5034000;28;20484;-50
2023/08/12 03:19:26;;;;;;;6.70;5.70;;;25.00;99.90;;;;;;5033944;28;20480;-54
2023/08/12 03:21:54;;;;;;;7.00;5.80;;;25.00;99.90;;;;;;5032076;28;20472;-50
2023/08/12 03:24:21;;;;;;;6.87;5.97;;;25.00;99.90;;;;;;5034097;28;20465;-51
2023/08/12 03:26:48;;;;;;;6.27;5.77;;;25.00;99.90;;;;;;5033926;28;20477;-61
2023/08/12 03:29:15;;;;;;;6.23;5.73;;;25.00;99.90;;;;;;5033974;28;20477;-51
2023/08/12 03:31:42;;;;;;;6.97;6.27;;;25.00;99.90;;;;;;5032485;28;20487;-50
2023/08/12 03:34:09;;;;;;;6.10;5.70;;;25.00;99.90;;;;;;5025318;28;20500;-51
2023/08/12 03:36:36;;;;;;;20.77;19.50;;;25.00;99.90;;;;;;5034087;28;20473;-59
2023/08/12 03:39:04;;;;;;;22.40;21.10;;;25.10;99.90;;;;;;5032934;28;20570;-63
2023/08/12 03:41:31;;;;;;;23.37;21.97;;;25.10;99.90;;;;;;5027712;28;20539;-72
2023/08/12 03:44:02;;;;;;;22.27;20.97;;;25.10;99.90;;;;;;5033640;28;20964;-67
2023/08/12 03:46:31;;;;;;;22.20;21.00;;;25.20;99.90;;;;;;5033561;28;20446;-69
2023/08/12 03:49:00;;;;;;;23.37;21.93;;;25.30;99.90;;;;;;5033495;28;21003;-67
2023/08/12 03:51:29;;;;;;;25.60;24.00;;;25.40;99.90;;;;;;5027383;28;21154;-60
2023/08/12 03:53:57;;;;;;;25.10;23.60;;;25.50;99.90;;;;;;5033613;28;20496;-63
2023/08/12 03:56:35;;;;;;;26.23;24.63;;;25.60;99.90;;;;;;5032727;28;20565;-63
2023/08/12 03:59:03;;;;;;;29.20;26.93;;;25.80;99.90;;;;;;5033322;28;20444;-65
2023/08/12 04:01:30;;;;;;;26.17;24.47;;;25.90;99.90;;;;;;5027671;28;20481;-62
2023/08/12 04:03:59;;;;;;;26.30;24.80;;;26.00;99.90;;;;;;5032779;28;20496;-63
2023/08/12 04:06:27;;;;;;;28.67;26.77;;;26.10;99.90;;;;;;5033097;28;20515;-63
2023/08/12 04:08:57;;;;;;;27.23;25.40;;;26.20;99.90;;;;;;5033394;28;20473;-66
2023/08/12 04:11:35;;;;;;;25.90;24.20;;;26.40;99.90;;;;;;5026568;28;21030;-65
2023/08/12 04:14:03;;;;;;;29.20;27.40;;;26.50;99.90;;;;;;5032716;28;20552;-65
2023/08/12 04:16:30;;;;;;;29.40;27.57;;;26.60;99.90;;;;;;5032942;28;20499;-61
2023/08/12 04:19:06;;;;;;;27.80;25.97;;;26.60;99.90;;;;;;5030702;28;20448;-62
2023/08/12 04:21:36;;;;;;;26.73;25.23;;;26.80;99.90;;;;;;5031505;28;20469;-61
2023/08/12 04:24:04;;;;;;;29.67;27.97;;;26.90;99.90;;;;;;5032009;28;20457;-60
2023/08/12 04:26:36;;;;;;;27.80;25.90;;;26.90;99.90;;;;;;5027615;28;20509;-49
2023/08/12 04:29:03;;;;;;;28.70;27.10;;;27.10;99.90;;;;;;5031546;28;20442;-60
2023/08/12 04:31:31;;;;;;;28.63;27.13;;;27.10;99.90;;;;;;5029346;28;20967;-61
2023/08/12 04:33:57;;;;;;;30.07;28.17;;;27.10;99.90;;;;;;5031672;28;20496;-49
2023/08/12 04:36:25;;;;;;;28.10;26.40;;;27.20;99.90;;;;;;5028458;28;20486;-57
2023/08/12 04:38:55;;;;;;;29.43;27.70;;;27.20;99.90;;;;;;5027020;28;20485;-59
2023/08/12 04:41:25;;;;;;;29.23;27.33;;;27.20;99.90;;;;;;5025201;28;20565;-60
2023/08/12 04:44:07;;;;;;;28.60;26.80;;;27.30;99.90;;;;;;5033242;28;21011;-60
2023/08/12 04:46:38;;;;;;;28.40;26.63;;;27.30;99.90;;;;;;5028224;28;20449;-58
2023/08/12 04:49:05;;;;;;;28.73;27.13;;;27.30;99.90;;;;;;5032599;28;20473;-55
2023/08/12 04:51:34;;;;;;;29.23;27.47;;;27.50;99.90;;;;;;5033352;28;20471;-55
2023/08/12 04:54:01;;;;;;;29.30;27.37;;;27.50;99.90;;;;;;5033020;28;20465;-59
2023/08/12 04:56:31;;;;;;;26.43;24.87;;;27.50;99.90;;;;;;5032728;28;20485;-52
2023/08/12 04:59:03;;;;;;;28.70;27.20;;;27.60;99.90;;;;;;5032386;28;20761;-51
2023/08/12 05:01:31;;;;;;;26.97;25.13;;;27.60;99.90;;;;;;5032957;28;20907;-54
2023/08/12 05:04:01;;;;;;;28.83;27.13;;;27.70;99.90;;;;;;5033582;28;20963;-58
2023/08/12 05:06:31;;;;;;;28.47;26.63;;;27.70;99.90;;;;;;5027452;28;20461;-57
2023/08/12 05:11:33;;;;;;;59.03;56.47;;;27.60;99.90;;;;;;5118489;27;20543;-49
2023/08/12 05:14:01;;;;;;;60.00;57.40;;;27.70;99.90;;;;;;5119405;27;20896;-47
2023/08/12 05:16:29;;;;;;;57.83;55.00;;;27.60;99.90;;;;;;5120564;27;20476;-49
2023/08/12 05:18:56;;;;;;;55.87;53.27;;;27.60;99.90;;;;;;5120565;27;20433;-48
2023/08/12 05:21:31;;;;;;;57.73;55.23;;;27.50;99.90;;;;;;5117795;28;20469;-49
2023/08/12 05:23:59;;;;;;;55.33;52.77;;;27.60;99.90;;;;;;5118535;28;20463;-51
2023/08/12 05:26:28;;;;;;;57.47;55.07;;;27.50;99.90;;;;;;5120480;27;20947;-51
2023/08/12 05:28:59;;;;;;;54.33;52.23;;;27.50;99.90;;;;;;5120211;27;20476;-49
2023/08/12 05:31:26;;;;;;;56.37;53.83;;;27.40;99.90;;;;;;5117513;28;21079;-48
2023/08/12 05:33:55;;;;;;;52.57;50.03;;;27.40;99.90;;;;;;5117118;28;20990;-46
2023/08/12 05:36:25;;;;;;;54.10;51.70;;;27.40;99.90;;;;;;5117620;28;20437;-48
2023/08/12 05:38:56;;;;;;;53.97;51.57;;;27.30;99.90;;;;;;5115995;28;20442;-48
2023/08/12 05:41:27;;;;;;;51.83;49.57;;;27.30;99.90;;;;;;5120971;27;20977;-46
2023/08/12 05:44:03;;;;;;;53.73;51.23;;;27.20;99.90;;;;;;5111220;27;20470;-54
2023/08/12 05:46:38;;;;;;;52.17;50.27;;;27.10;99.90;;;;;;5110313;28;20455;-45
2023/08/12 05:49:09;;;;;;;51.93;49.73;;;27.20;99.90;;;;;;5119417;28;20434;-53
2023/08/12 05:51:49;;;;;;;51.47;49.47;;;27.20;99.90;;;;;;5120370;27;20472;-48
2023/08/12 05:54:22;;;;;;;36.97;35.37;;;27.20;99.90;;;;;;5112550;28;20468;-50
2023/08/12 05:56:50;;;;;;;38.93;37.23;;;27.00;99.90;;;;;;5117174;28;20933;-49
2023/08/12 05:59:18;;;;;;;38.47;36.97;;;26.80;99.90;;;;;;5108488;28;20465;-50
2023/08/12 06:01:45;;;;;;;38.00;36.30;;;26.80;99.90;;;;;;5117225;28;20481;-50
2023/08/12 06:04:12;;;;;;;39.47;37.87;;;26.70;99.90;;;;;;5120600;28;20537;-50
2023/08/12 06:06:39;;;;;;;38.00;36.20;;;26.70;99.90;;;;;;5116753;28;20480;-50
2023/08/12 06:09:06;;;;;;;36.60;34.97;;;26.80;99.90;;;;;;5118687;28;20469;-51
2023/08/12 06:11:33;;;;;;;38.00;36.50;;;26.70;99.90;;;;;;5120229;27;21019;-55
2023/08/12 06:13:59;;;;;;;38.43;36.90;;;26.70;99.90;;;;;;5112278;27;20911;-53
2023/08/12 06:16:28;;;;;;;37.83;36.03;;;26.60;99.90;;;;;;5116838;28;20442;-53
2023/08/12 06:18:55;;;;;;;35.77;34.40;;;26.50;99.90;;;;;;5125064;28;20464;-48
2023/08/12 06:21:28;;;;;;;37.87;36.20;;;26.50;99.90;;;;;;5111230;28;20965;-52
2023/08/12 06:23:58;;;;;;;35.73;34.33;;;26.50;99.90;;;;;;5103075;28;20476;-52
2023/08/12 06:26:32;;;;;;;38.30;36.70;;;26.50;99.90;;;;;;5095777;28;20957;-51
2023/08/12 06:29:02;;;;;;;36.70;35.20;;;26.50;99.90;;;;;;5103807;28;20450;-50
2023/08/12 06:31:32;;;;;;;36.33;34.93;;;26.50;99.90;;;;;;5105957;28;20473;-51
2023/08/12 06:34:00;;;;;;;37.10;35.60;;;26.40;99.90;;;;;;5104564;27;20891;-51
2023/08/12 06:36:31;;;;;;;35.17;33.77;;;26.30;99.90;;;;;;5102698;28;20442;-51
2023/08/12 06:39:00;;;;;;;35.00;33.30;;;26.30;99.90;;;;;;5103221;28;20446;-50
2023/08/12 06:41:27;;;;;;;34.63;33.13;;;26.40;99.90;;;;;;5099443;28;20445;-50
2023/08/12 06:43:58;;;;;;;36.73;35.10;;;26.30;99.90;;;;;;5104453;28;20873;-50
2023/08/12 06:46:26;;;;;;;35.83;34.23;;;26.30;99.90;;;;;;5102675;28;20470;-50
2023/08/12 06:48:59;;;;;;;37.07;35.57;;;26.30;99.90;;;;;;5102522;28;20839;-51
2023/08/12 06:51:29;;;;;;;35.70;34.20;;;26.40;99.90;;;;;;5104458;28;20520;-50
2023/08/12 06:53:59;;;;;;;34.80;33.30;;;26.30;99.90;;;;;;5105436;28;20457;-51
2023/08/12 06:56:26;;;;;;;34.47;33.07;;;26.30;99.90;;;;;;5102322;28;20443;-50
2023/08/12 06:58:54;;;;;;;35.00;33.37;;;26.30;99.90;;;;;;5102191;28;20873;-51
2023/08/12 07:01:22;;;;;;;36.87;35.00;;;26.30;99.90;;;;;;5099175;28;20499;-50
2023/08/12 07:03:51;;;;;;;37.33;35.90;;;26.30;99.90;;;;;;5085405;28;20497;-49
2023/08/12 07:06:21;;;;;;;37.37;35.90;;;26.40;99.90;;;;;;5105266;28;20454;-50
2023/08/12 07:08:53;;;;;;;37.70;36.20;;;26.40;99.90;;;;;;5102276;28;20525;-52
2023/08/12 07:11:20;;;;;;;34.50;33.20;;;26.40;99.90;;;;;;5093065;28;20506;-48
2023/08/12 07:13:47;;;;;;;37.00;35.47;;;26.40;99.90;;;;;;5100158;28;20508;-51
2023/08/12 07:16:22;;;;;;;37.17;35.67;;;26.40;99.90;;;;;;5102928;28;20449;-51
2023/08/12 07:18:49;;;;;;;38.73;37.03;;;26.40;99.90;;;;;;5105134;28;20831;-49
2023/08/12 07:21:16;;;;;;;37.67;35.97;;;26.40;99.90;;;;;;5101672;28;20469;-48
2023/08/12 07:23:46;;;;;;;37.17;35.63;;;26.40;99.90;;;;;;5100924;28;21001;-52
2023/08/12 07:26:14;;;;;;;36.03;34.53;;;26.40;99.90;;;;;;5103858;28;20446;-52
2023/08/12 07:28:42;;;;;;;39.07;37.53;;;26.40;99.90;;;;;;5105019;28;20822;-50
2023/08/12 07:31:09;;;;;;;37.00;35.13;;;26.50;99.90;;;;;;5102698;28;20477;-51
2023/08/12 07:33:37;;;;;;;36.13;34.63;;;26.50;99.90;;;;;;5095713;28;20502;-50
2023/08/12 07:36:08;;;;;;;37.57;35.60;;;26.40;99.90;;;;;;5093196;28;20480;-50
2023/08/12 07:38:38;;;;;;;33.57;32.27;;;26.40;99.90;;;;;;5108129;28;20508;-48
2023/08/12 07:41:27;;;;;;;35.07;33.47;;;26.40;99.90;;;;;;5094339;28;20446;-49
2023/08/12 07:44:00;;;;;;;38.27;36.57;;;26.30;99.90;;;;;;5097472;28;20466;-49
2023/08/12 07:46:29;;;;;;;37.10;35.70;;;26.30;99.90;;;;;;5093984;28;20430;-48
2023/08/12 07:49:00;;;;;;;35.20;33.90;;;26.30;99.90;;;;;;5101248;28;20852;-53
2023/08/12 07:51:31;;;;;;;36.20;34.60;;;26.40;99.90;;;;;;5103892;28;20485;-51
2023/08/12 07:54:01;;;;;;;32.60;31.37;;;26.40;99.90;;;;;;5103521;28;20469;-51
2023/08/12 07:56:34;;;;;;;34.47;33.20;;;26.40;99.90;;;;;;5101267;28;20788;-54
2023/08/12 07:59:02;;;;;;;35.60;34.10;;;26.40;99.90;;;;;;5100992;28;20437;-50
2023/08/12 08:01:30;;;;;;;34.90;33.60;;;26.40;99.90;;;;;;5101103;28;20446;-51
2023/08/12 08:04:00;;;;;;;37.53;36.03;;;26.50;99.90;;;;;;5101450;28;20469;-52
2023/08/12 08:06:28;;;;;;;35.27;33.63;;;26.50;99.90;;;;;;5101239;28;20462;-51
2023/08/12 08:09:00;;;;;;;37.03;35.53;;;26.50;99.90;;;;;;5100812;28;20439;-47
2023/08/12 08:11:34;;;;;;;35.67;34.17;;;26.50;99.90;;;;;;5091388;28;20845;-50
2023/08/12 08:14:04;;;;;;;35.50;34.10;;;26.50;99.90;;;;;;5101397;28;20538;-50
2023/08/12 08:16:36;;;;;;;37.00;35.20;;;26.60;99.90;;;;;;5100370;28;20864;-52
2023/08/12 08:19:07;;;;;;;40.07;38.17;;;26.60;99.90;;;;;;5100694;28;20537;-50
2023/08/12 08:21:38;;;;;;;34.90;33.37;;;26.60;99.90;;;;;;5104014;28;20458;-50
2023/08/12 08:24:12;;;;;;;33.30;31.90;;;26.50;99.90;;;;;;5102162;28;20470;-50
2023/08/12 08:26:45;;;;;;;37.03;35.33;;;26.60;99.90;;;;;;5105669;28;20469;-49
2023/08/12 08:29:17;;;;;;;32.73;31.53;;;26.60;99.90;;;;;;5100595;28;20449;-51
2023/08/12 08:31:52;;;;;;;32.47;31.03;;;26.60;99.90;;;;;;5105173;28;20539;-50
2023/08/12 08:34:20;;;;;;;34.17;32.97;;;26.60;99.90;;;;;;5101844;28;20469;-54
2023/08/12 08:36:48;;;;;;;34.73;33.40;;;26.60;99.90;;;;;;5109299;28;20511;-54
2023/08/12 08:39:21;;;;;;;33.30;32.10;;;26.60;99.90;;;;;;5110471;28;20446;-52
2023/08/12 08:41:57;;;;;;;33.47;32.10;;;26.60;99.90;;;;;;5106618;27;20438;-55
2023/08/12 08:44:31;;;;;;;35.03;33.73;;;26.60;99.90;;;;;;5095766;28;20462;-51
2023/08/12 08:47:00;;;;;;;33.77;32.47;;;26.60;99.90;;;;;;5107360;28;20446;-53
2023/08/12 08:52:15;;;;;;;30.03;28.90;;;26.60;99.90;;;;;;5109310;28;20505;-48
2023/08/12 08:54:46;;;;;;;31.03;29.93;;;26.60;99.90;;;;;;5107540;28;20472;-48
2023/08/12 08:57:21;;;;;;;28.37;27.13;;;26.70;99.90;;;;;;5107752;28;20441;-54
2023/08/12 08:59:51;;;;;;;32.27;31.07;;;26.70;99.90;;;;;;5106432;28;20442;-51
2023/08/12 09:02:19;;;;;;;30.17;29.17;;;26.70;99.90;;;;;;5100985;28;20442;-51
2023/08/12 09:04:58;;;;;;;27.37;26.33;;;26.60;99.90;;;;;;5103484;28;20467;-53
2023/08/12 09:07:26;;;;;;;28.30;27.30;;;26.50;99.90;;;;;;5101054;28;21100;-55
2023/08/12 09:09:58;;;;;;;29.63;28.30;;;26.40;99.90;;;;;;5108943;28;20474;-49
2023/08/12 09:12:36;;;;;;;27.40;26.40;;;26.40;99.90;;;;;;5104597;28;20501;-50
2023/08/12 09:15:15;;;;;;;25.80;24.90;;;26.30;99.90;;;;;;5113400;28;20466;-50
2023/08/12 09:17:43;;;;;;;27.33;26.43;;;26.30;99.90;;;;;;5113055;28;20438;-49
2023/08/12 09:20:16;;;;;;;28.03;26.47;;;26.20;99.90;;;;;;5111424;28;20434;-50
2023/08/12 09:22:47;;;;;;;26.33;25.40;;;26.10;99.90;;;;;;5113353;28;20425;-50
2023/08/12 09:25:14;;;;;;;28.10;27.00;;;26.10;99.90;;;;;;5110857;28;20494;-51
2023/08/12 09:27:44;;;;;;;26.70;25.70;;;26.00;99.90;;;;;;5113532;28;20453;-51
2023/08/12 09:30:15;;;;;;;26.63;25.63;;;25.90;99.90;;;;;;5099301;28;20455;-51
2023/08/12 09:33:12;;;;;;;26.40;25.43;;;25.80;99.90;;;;;;5106385;28;20480;-50
2023/08/12 09:35:42;;;;;;;24.00;23.20;;;25.70;99.90;;;;;;5101891;28;20442;-50
2023/08/12 09:38:13;;;;;;;25.20;24.20;;;25.60;99.90;;;;;;5110957;28;20890;-51
2023/08/12 09:40:44;;;;;;;24.80;23.80;;;25.50;99.90;;;;;;5117006;28;20449;-49
2023/08/12 09:43:16;;;;;;;27.70;26.57;;;25.50;99.90;;;;;;5112327;28;20792;-51
2023/08/12 09:45:46;;;;;;;24.30;23.40;;;25.50;99.90;;;;;;5112990;28;20442;-52
2023/08/12 09:48:14;;;;;;;23.90;23.10;;;25.40;99.90;;;;;;5102684;28;20438;-52
2023/08/12 09:50:42;;;;;;;24.43;23.63;;;25.40;99.90;;;;;;5114481;28;20483;-51
2023/08/12 09:53:14;;;;;;;23.80;22.77;;;25.30;99.90;;;;;;5109506;28;20453;-49
2023/08/12 09:55:42;;;;;;;23.50;22.60;;;25.30;99.90;;;;;;5119302;28;20441;-49
2023/08/12 09:58:14;;;;;;;23.13;22.33;;;25.20;99.90;;;;;;5117739;28;20448;-49
2023/08/12 10:00:43;;;;;;;22.80;22.00;;;25.20;99.90;;;;;;5115166;28;20557;-50
2023/08/12 10:03:14;;;;;;;25.40;24.50;;;25.20;99.90;;;;;;5118048;28;20524;-49
2023/08/12 10:05:42;;;;;;;24.17;23.37;;;25.20;99.90;;;;;;5119943;28;20948;-50
2023/08/12 10:08:13;;;;;;;22.60;21.50;;;25.20;99.90;;;;;;5119837;28;20461;-51
2023/08/12 10:10:43;;;;;;;23.60;22.80;;;25.10;99.90;;;;;;5115435;28;20506;-51
2023/08/12 10:13:12;;;;;;;22.87;22.17;;;25.00;99.90;;;;;;5118380;27;20532;-49
2023/08/12 10:15:42;;;;;;;24.77;23.87;;;25.00;99.90;;;;;;5115680;28;20950;-50
2023/08/12 10:18:14;;;;;;;28.87;27.93;;;25.00;99.90;;;;;;5110224;28;20442;-50
2023/08/12 10:20:45;;;;;;;27.33;26.43;;;25.00;99.90;;;;;;5111511;28;20449;-49
2023/08/12 10:23:18;;;;;;;26.70;25.80;;;25.00;99.90;;;;;;5110228;28;20976;-50
2023/08/12 10:25:45;;;;;;;27.27;26.37;;;25.10;99.90;;;;;;5111760;28;20449;-49
2023/08/12 10:30:58;;;;;;;27.70;26.70;;;25.10;99.90;;;;;;5098261;28;20451;-50
2023/08/12 10:33:27;;;;;;;29.07;27.87;;;25.10;99.90;;;;;;5098290;28;20467;-49
2023/08/12 10:35:59;;;;;;;28.37;27.33;;;25.10;99.90;;;;;;5111026;28;20443;-50
2023/08/12 10:38:27;;;;;;;25.20;24.23;;;25.20;99.90;;;;;;5113550;28;20463;-52
2023/08/12 10:41:14;;;;;;;25.23;24.20;;;25.30;99.90;;;;;;5110976;28;20462;-52
2023/08/12 10:43:53;;;;;;;27.87;26.67;;;25.40;99.90;;;;;;5107589;28;20454;-52
2023/08/12 10:46:29;;;;;;;28.20;27.00;;;25.50;99.90;;;;;;5113273;28;20438;-52
2023/08/12 10:49:07;;;;;;;29.50;28.40;;;25.60;99.90;;;;;;5104222;28;20514;-51
2023/08/12 10:51:47;;;;;;;25.80;25.00;;;25.60;99.90;;;;;;5103857;28;20531;-52
2023/08/12 10:54:26;;;;;;;27.03;26.23;;;25.60;99.90;;;;;;5101574;28;20466;-52
2023/08/12 10:57:16;;;;;;;26.83;25.87;;;25.70;99.90;;;;;;5103723;28;20438;-52
2023/08/12 10:59:51;;;;;;;25.77;24.87;;;25.80;99.90;;;;;;5101785;28;20442;-52
2023/08/12 11:02:21;;;;;;;26.63;25.83;;;25.90;99.90;;;;;;5102517;28;20467;-52
2023/08/12 11:05:01;;;;;;;24.00;23.30;;;26.00;99.90;;;;;;5102162;28;20455;-53
2023/08/12 11:07:35;;;;;;;24.67;23.97;;;26.00;99.90;;;;;;5079736;28;20624;-51
2023/08/12 11:10:10;;;;;;;26.03;25.23;;;26.00;99.90;;;;;;5078492;28;20447;-51
2023/08/12 11:12:46;;;;;;;26.43;25.63;;;26.10;99.90;;;;;;5073951;28;20514;-52
2023/08/12 11:15:16;;;;;;;26.97;26.17;;;26.20;99.90;;;;;;5072315;28;20473;-51
2023/08/12 11:17:47;;;;;;;26.50;25.70;;;26.30;99.90;;;;;;5085831;28;20457;-56
2023/08/12 11:20:16;;;;;;;29.43;28.53;;;26.30;99.90;;;;;;5092663;28;20450;-53
2023/08/12 11:22:45;;;;;;;27.20;26.40;;;26.40;99.90;;;;;;5092677;28;20549;-53
2023/08/12 11:25:15;;;;;;;26.83;26.03;;;26.40;99.90;;;;;;5093790;28;20431;-53
2023/08/12 11:27:47;;;;;;;28.90;28.00;;;26.60;99.90;;;;;;5091809;28;20514;-53
2023/08/12 11:33:01;;;;;;;27.80;27.00;;;26.60;99.90;;;;;;5093299;28;20482;-50
2023/08/12 11:35:41;;;;;;;31.10;30.10;;;26.70;99.90;;;;;;5094549;28;20503;-49
2023/08/12 11:38:09;;;;;;;30.33;29.33;;;26.80;99.90;;;;;;5076574;28;20444;-51
2023/08/12 11:40:39;;;;;;;30.00;29.10;;;26.90;99.90;;;;;;5075842;28;20450;-51
2023/08/12 11:43:06;;;;;;;27.87;26.97;;;26.90;99.90;;;;;;5075701;28;20500;-52
2023/08/12 11:45:33;;;;;;;29.40;28.50;;;26.90;99.90;;;;;;5074997;28;20467;-53
2023/08/12 11:48:04;;;;;;;31.93;30.97;;;26.90;99.90;;;;;;5092230;28;20450;-53
2023/08/12 11:50:31;;;;;;;30.57;29.67;;;27.00;99.90;;;;;;5095864;28;20806;-51
2023/08/12 11:52:58;;;;;;;30.77;29.57;;;27.10;99.90;;;;;;5093493;28;20478;-51
2023/08/12 11:55:26;;;;;;;28.40;27.47;;;27.10;99.90;;;;;;5088734;28;20892;-47
2023/08/12 11:57:53;;;;;;;27.10;26.30;;;27.10;99.90;;;;;;5072990;28;20471;-47
2023/08/12 12:00:21;;;;;;;28.23;26.73;;;27.20;99.90;;;;;;5074041;28;20482;-49
2023/08/12 12:02:58;;;;;;;27.33;26.43;;;27.30;99.90;;;;;;5086685;28;20869;-49
2023/08/12 12:05:33;;;;;;;28.43;27.53;;;27.20;99.90;;;;;;5093134;28;20958;-49
2023/08/12 12:08:05;;;;;;;27.93;27.03;;;27.20;99.90;;;;;;5093085;28;20442;-49
2023/08/12 12:10:37;;;;;;;26.70;25.80;;;27.20;99.90;;;;;;5092856;28;20901;-49
2023/08/12 12:13:09;;;;;;;28.00;27.10;;;27.10;99.90;;;;;;5092589;28;20524;-49
2023/08/12 12:15:44;;;;;;;28.10;27.20;;;27.10;99.90;;;;;;5092651;28;20486;-49
2023/08/12 12:18:12;;;;;;;28.80;27.80;;;26.90;99.90;;;;;;5093080;28;20438;-49
2023/08/12 12:20:57;;;;;;;27.43;26.47;;;26.80;99.90;;;;;;5092495;28;20993;-50
2023/08/12 12:23:31;;;;;;;27.57;26.77;;;26.70;99.90;;;;;;5092634;28;20459;-49
2023/08/12 12:26:02;;;;;;;28.90;27.90;;;26.60;99.90;;;;;;5092453;28;20958;-49
2023/08/12 12:28:30;;;;;;;26.47;25.60;;;26.60;99.90;;;;;;5091301;28;20481;-49
2023/08/12 12:30:58;;;;;;;27.00;26.20;;;26.50;99.90;;;;;;5090908;28;20444;-50
2023/08/12 12:33:27;;;;;;;27.07;26.17;;;26.40;99.90;;;;;;5092450;28;20478;-49
2023/08/12 12:35:56;;;;;;;30.00;29.10;;;26.30;99.90;;;;;;5092258;28;20924;-54
2023/08/12 12:38:23;;;;;;;27.33;26.43;;;26.20;99.90;;;;;;5092420;28;20439;-49
2023/08/12 12:40:54;;;;;;;26.90;26.10;;;26.10;99.90;;;;;;5092183;28;20444;-49
2023/08/12 12:43:24;;;;;;;26.87;25.97;;;26.00;99.90;;;;;;5091278;28;20523;-48
2023/08/12 12:45:51;;;;;;;31.73;30.63;;;25.90;99.90;;;;;;5086331;28;20954;-49
2023/08/12 12:48:20;;;;;;;30.53;29.53;;;25.90;99.90;;;;;;5071629;28;20455;-51
2023/08/12 12:50:49;;;;;;;31.47;30.47;;;25.80;99.90;;;;;;5071882;28;20444;-52
2023/08/12 12:53:20;;;;;;;27.50;26.70;;;25.80;99.90;;;;;;5071619;28;20520;-54
2023/08/12 12:55:52;;;;;;;28.83;27.93;;;25.80;99.90;;;;;;5072049;28;20447;-54